sensor_id;sensor_type;location;lat;lon;timestamp;temperature;humidity
15386;DHT22;7791;47.246;9.648;2022-11-20T00:01:14;5.20;99.90
15386;DHT22;7791;47.246;9.648;2022-11-20T00:03:42;5.30;99.90
15386;DHT22;7791;47.246;9.648;2022-11-20T00:06:12;5.40;99.90
15386;DHT22;7791;47.246;9.648;2022-11-20T00:08:38;5.50;99.90
15386;DHT22;7791;47.246;9.648;2022-11-20T00:11:09;5.50;99.90
15386;DHT22;7791;47.246;9.648;2022-11-20T00:13:36;5.50;99.90
15386;DHT22;7791;47.246;9.648;2022-11-20T00:16:04;5.60;99.90
15386;DHT22;7791;47.246;9.648;2022-11-20T00:18:33;5.60;99.90
15386;DHT22;7791;47.246;9.648;2022-11-20T00:21:02;5.70;99.90
15386;DHT22;7791;47.246;9.648;2022-11-20T00:23:31;5.70;99.90
15386;DHT22;7791;47.246;9.648;2022-11-20T00:26:01;5.80;99.90
15386;DHT22;7791;47.246;9.648;2022-11-20T00:28:29;5.70;99.90
15386;DHT22;7791;47.246;9.648;2022-11-20T00:31:01;5.80;99.90
15386;DHT22;7791;47.246;9.648;2022-11-20T00:33:28;5.80;99.90
15386;DHT22;7791;47.246;9.648;2022-11-20T00:35:59;5.90;99.90
15386;DHT22;7791;47.246;9.648;2022-11-20T00:38:26;5.90;99.90
15386;DHT22;7791;47.246;9.648;2022-11-20T00:40:55;5.90;99.90
15386;DHT22;7791;47.246;9.648;2022-11-20T00:43:26;5.90;99.90
15386;DHT22;7791;47.246;9.648;2022-11-20T00:45:57;5.90;99.90
15386;DHT22;7791;47.246;9.648;2022-11-20T00:48:25;5.90;99.90
15386;DHT22;7791;47.246;9.648;2022-11-20T00:50:51;5.90;99.90
15386;DHT22;7791;47.246;9.648;2022-11-20T00:53:17;5.90;99.90
15386;DHT22;7791;47.246;9.648;2022-11-20T00:55:53;5.90;99.90
15386;DHT22;7791;47.246;9.648;2022-11-20T00:58:20;5.90;99.90
15386;DHT22;7791;47.246;9.648;2022-11-20T01:00:47;5.80;99.90
15386;DHT22;7791;47.246;9.648;2022-11-20T01:03:14;5.90;99.90
15386;DHT22;7791;47.246;9.648;2022-11-20T01:05:40;5.90;99.90
15386;DHT22;7791;47.246;9.648;2022-11-20T01:08:08;5.90;99.90
15386;DHT22;7791;47.246;9.648;2022-11-20T01:10:35;5.90;99.90
15386;DHT22;7791;47.246;9.648;2022-11-20T01:13:01;5.80;99.90
15386;DHT22;7791;47.246;9.648;2022-11-20T01:15:27;5.70;99.90
15386;DHT22;7791;47.246;9.648;2022-11-20T01:17:54;5.60;99.90
15386;DHT22;7791;47.246;9.648;2022-11-20T01:20:21;5.70;99.90
15386;DHT22;7791;47.246;9.648;2022-11-20T01:22:47;5.80;99.90
15386;DHT22;7791;47.246;9.648;2022-11-20T01:25:16;5.90;99.90
15386;DHT22;7791;47.246;9.648;2022-11-20T01:27:42;5.90;99.90
15386;DHT22;7791;47.246;9.648;2022-11-20T01:30:12;5.90;99.90
15386;DHT22;7791;47.246;9.648;2022-11-20T01:32:41;6.00;99.90
15386;DHT22;7791;47.246;9.648;2022-11-20T01:35:09;6.00;99.90
15386;DHT22;7791;47.246;9.648;2022-11-20T01:37:36;6.00;99.90
15386;DHT22;7791;47.246;9.648;2022-11-20T01:40:05;6.00;99.90
15386;DHT22;7791;47.246;9.648;2022-11-20T01:42:33;6.00;99.90
15386;DHT22;7791;47.246;9.648;2022-11-20T01:45:00;6.00;99.90
15386;DHT22;7791;47.246;9.648;2022-11-20T01:47:33;5.90;99.90
15386;DHT22;7791;47.246;9.648;2022-11-20T01:50:05;5.70;99.90
15386;DHT22;7791;47.246;9.648;2022-11-20T01:52:41;5.70;99.90
15386;DHT22;7791;47.246;9.648;2022-11-20T01:55:13;5.70;99.90
15386;DHT22;7791;47.246;9.648;2022-11-20T01:57:41;5.70;99.90
15386;DHT22;7791;47.246;9.648;2022-11-20T02:00:12;5.80;99.90
15386;DHT22;7791;47.246;9.648;2022-11-20T02:02:40;5.80;99.90
15386;DHT22;7791;47.246;9.648;2022-11-20T02:05:14;5.60;99.90
15386;DHT22;7791;47.246;9.648;2022-11-20T02:07:45;5.50;99.90
15386;DHT22;7791;47.246;9.648;2022-11-20T02:10:11;5.50;99.90
15386;DHT22;7791;47.246;9.648;2022-11-20T02:12:40;5.40;99.90
15386;DHT22;7791;47.246;9.648;2022-11-20T02:15:10;5.30;99.90
15386;DHT22;7791;47.246;9.648;2022-11-20T02:17:36;5.20;99.90
15386;DHT22;7791;47.246;9.648;2022-11-20T02:20:06;5.20;99.90
15386;DHT22;7791;47.246;9.648;2022-11-20T02:22:38;5.00;99.90
15386;DHT22;7791;47.246;9.648;2022-11-20T02:25:08;4.90;99.90
15386;DHT22;7791;47.246;9.648;2022-11-20T02:27:36;4.70;99.90
15386;DHT22;7791;47.246;9.648;2022-11-20T02:30:08;4.60;99.90
15386;DHT22;7791;47.246;9.648;2022-11-20T02:32:39;4.50;99.90
15386;DHT22;7791;47.246;9.648;2022-11-20T02:35:09;4.40;99.90
15386;DHT22;7791;47.246;9.648;2022-11-20T02:37:37;4.40;99.90
15386;DHT22;7791;47.246;9.648;2022-11-20T02:40:08;4.40;99.90
15386;DHT22;7791;47.246;9.648;2022-11-20T02:42:34;4.50;99.90
15386;DHT22;7791;47.246;9.648;2022-11-20T02:45:00;4.60;99.90
15386;DHT22;7791;47.246;9.648;2022-11-20T02:47:27;4.70;99.90
15386;DHT22;7791;47.246;9.648;2022-11-20T02:50:01;4.70;99.90
15386;DHT22;7791;47.246;9.648;2022-11-20T02:52:27;4.30;99.90
15386;DHT22;7791;47.246;9.648;2022-11-20T02:54:54;4.40;99.90
15386;DHT22;7791;47.246;9.648;2022-11-20T02:57:21;4.60;99.90
15386;DHT22;7791;47.246;9.648;2022-11-20T02:59:47;4.80;99.90
15386;DHT22;7791;47.246;9.648;2022-11-20T03:02:13;5.00;99.90
15386;DHT22;7791;47.246;9.648;2022-11-20T03:04:39;5.10;99.90
15386;DHT22;7791;47.246;9.648;2022-11-20T03:07:05;5.20;99.90
15386;DHT22;7791;47.246;9.648;2022-11-20T03:09:31;5.20;99.90
15386;DHT22;7791;47.246;9.648;2022-11-20T03:11:57;5.30;99.90
15386;DHT22;7791;47.246;9.648;2022-11-20T03:14:25;5.30;99.90
15386;DHT22;7791;47.246;9.648;2022-11-20T03:16:51;5.40;99.90
15386;DHT22;7791;47.246;9.648;2022-11-20T03:19:16;5.50;99.90
15386;DHT22;7791;47.246;9.648;2022-11-20T03:21:46;5.50;99.90
15386;DHT22;7791;47.246;9.648;2022-11-20T03:24:12;5.60;99.90
15386;DHT22;7791;47.246;9.648;2022-11-20T03:26:44;5.60;99.90
15386;DHT22;7791;47.246;9.648;2022-11-20T03:29:14;5.70;99.90
15386;DHT22;7791;47.246;9.648;2022-11-20T03:31:46;5.70;99.90
15386;DHT22;7791;47.246;9.648;2022-11-20T03:34:12;5.70;99.90
15386;DHT22;7791;47.246;9.648;2022-11-20T03:36:45;5.70;99.90
15386;DHT22;7791;47.246;9.648;2022-11-20T03:39:11;5.70;99.90
15386;DHT22;7791;47.246;9.648;2022-11-20T03:41:39;5.70;99.90
15386;DHT22;7791;47.246;9.648;2022-11-20T03:44:10;5.70;99.90
15386;DHT22;7791;47.246;9.648;2022-11-20T03:46:40;5.70;99.90
15386;DHT22;7791;47.246;9.648;2022-11-20T03:49:15;5.80;99.90
15386;DHT22;7791;47.246;9.648;2022-11-20T03:51:59;5.80;99.90
15386;DHT22;7791;47.246;9.648;2022-11-20T03:54:27;5.80;99.90
15386;DHT22;7791;47.246;9.648;2022-11-20T03:56:53;5.80;99.90
15386;DHT22;7791;47.246;9.648;2022-11-20T03:59:19;5.80;99.90
15386;DHT22;7791;47.246;9.648;2022-11-20T04:01:45;5.80;99.90
15386;DHT22;7791;47.246;9.648;2022-11-20T04:04:11;5.80;99.90
15386;DHT22;7791;47.246;9.648;2022-11-20T04:06:39;5.60;99.90
15386;DHT22;7791;47.246;9.648;2022-11-20T04:09:07;5.60;99.90
15386;DHT22;7791;47.246;9.648;2022-11-20T04:11:34;5.70;99.90
15386;DHT22;7791;47.246;9.648;2022-11-20T04:14:06;5.80;99.90
15386;DHT22;7791;47.246;9.648;2022-11-20T04:16:34;5.80;99.90
15386;DHT22;7791;47.246;9.648;2022-11-20T04:19:02;5.80;99.90
15386;DHT22;7791;47.246;9.648;2022-11-20T04:21:34;5.80;99.90
15386;DHT22;7791;47.246;9.648;2022-11-20T04:24:03;5.90;99.90
15386;DHT22;7791;47.246;9.648;2022-11-20T04:26:29;5.90;99.90
15386;DHT22;7791;47.246;9.648;2022-11-20T04:28:56;5.90;99.90
15386;DHT22;7791;47.246;9.648;2022-11-20T04:31:24;5.90;99.90
15386;DHT22;7791;47.246;9.648;2022-11-20T04:33:52;6.00;99.90
15386;DHT22;7791;47.246;9.648;2022-11-20T04:36:22;6.00;99.90
15386;DHT22;7791;47.246;9.648;2022-11-20T04:39:00;6.00;99.90
15386;DHT22;7791;47.246;9.648;2022-11-20T04:41:32;5.90;99.90
15386;DHT22;7791;47.246;9.648;2022-11-20T04:44:05;6.00;99.90
15386;DHT22;7791;47.246;9.648;2022-11-20T04:46:34;5.90;99.90
15386;DHT22;7791;47.246;9.648;2022-11-20T04:49:03;5.90;99.90
15386;DHT22;7791;47.246;9.648;2022-11-20T04:51:31;5.90;99.90
15386;DHT22;7791;47.246;9.648;2022-11-20T04:54:02;6.00;99.90
15386;DHT22;7791;47.246;9.648;2022-11-20T04:56:34;6.00;99.90
15386;DHT22;7791;47.246;9.648;2022-11-20T04:59:05;6.00;99.90
15386;DHT22;7791;47.246;9.648;2022-11-20T05:01:43;5.80;99.90
15386;DHT22;7791;47.246;9.648;2022-11-20T05:04:09;5.80;99.90
15386;DHT22;7791;47.246;9.648;2022-11-20T05:06:35;5.80;99.90
15386;DHT22;7791;47.246;9.648;2022-11-20T05:09:14;5.90;99.90
15386;DHT22;7791;47.246;9.648;2022-11-20T05:11:42;5.90;99.90
15386;DHT22;7791;47.246;9.648;2022-11-20T05:14:08;5.80;99.90
15386;DHT22;7791;47.246;9.648;2022-11-20T05:16:35;5.80;99.90
15386;DHT22;7791;47.246;9.648;2022-11-20T05:19:03;5.80;99.90
15386;DHT22;7791;47.246;9.648;2022-11-20T05:21:33;5.80;99.90
15386;DHT22;7791;47.246;9.648;2022-11-20T05:24:00;5.80;99.90
15386;DHT22;7791;47.246;9.648;2022-11-20T05:26:26;5.70;99.90
15386;DHT22;7791;47.246;9.648;2022-11-20T05:28:55;5.70;99.90
15386;DHT22;7791;47.246;9.648;2022-11-20T05:31:23;5.80;99.90
15386;DHT22;7791;47.246;9.648;2022-11-20T05:33:49;6.00;99.90
15386;DHT22;7791;47.246;9.648;2022-11-20T05:36:20;6.10;99.90
15386;DHT22;7791;47.246;9.648;2022-11-20T05:38:47;6.00;99.90
15386;DHT22;7791;47.246;9.648;2022-11-20T05:41:22;5.90;99.90
15386;DHT22;7791;47.246;9.648;2022-11-20T05:43:49;5.80;99.90
15386;DHT22;7791;47.246;9.648;2022-11-20T05:46:19;5.60;99.90
15386;DHT22;7791;47.246;9.648;2022-11-20T05:48:54;5.60;99.90
15386;DHT22;7791;47.246;9.648;2022-11-20T05:51:20;5.80;99.90
15386;DHT22;7791;47.246;9.648;2022-11-20T05:53:47;5.90;99.90
15386;DHT22;7791;47.246;9.648;2022-11-20T05:56:22;5.90;99.90
15386;DHT22;7791;47.246;9.648;2022-11-20T05:58:49;6.00;99.90
15386;DHT22;7791;47.246;9.648;2022-11-20T06:01:20;6.00;99.90
15386;DHT22;7791;47.246;9.648;2022-11-20T06:03:47;6.10;99.90
15386;DHT22;7791;47.246;9.648;2022-11-20T06:06:14;6.10;99.90
15386;DHT22;7791;47.246;9.648;2022-11-20T06:08:42;6.20;99.90
15386;DHT22;7791;47.246;9.648;2022-11-20T06:11:10;6.20;99.90
15386;DHT22;7791;47.246;9.648;2022-11-20T06:13:38;6.20;99.90
15386;DHT22;7791;47.246;9.648;2022-11-20T06:16:05;6.10;99.90
15386;DHT22;7791;47.246;9.648;2022-11-20T06:18:34;6.00;99.90
15386;DHT22;7791;47.246;9.648;2022-11-20T06:21:03;6.00;99.90
15386;DHT22;7791;47.246;9.648;2022-11-20T06:23:32;6.10;99.90
15386;DHT22;7791;47.246;9.648;2022-11-20T06:26:01;6.10;99.90
15386;DHT22;7791;47.246;9.648;2022-11-20T06:28:27;6.10;99.90
15386;DHT22;7791;47.246;9.648;2022-11-20T06:30:53;6.10;99.90
15386;DHT22;7791;47.246;9.648;2022-11-20T06:33:20;6.00;99.90
15386;DHT22;7791;47.246;9.648;2022-11-20T06:35:50;6.00;99.90
15386;DHT22;7791;47.246;9.648;2022-11-20T06:38:16;6.00;99.90
15386;DHT22;7791;47.246;9.648;2022-11-20T06:40:42;6.10;99.90
15386;DHT22;7791;47.246;9.648;2022-11-20T06:43:10;6.20;99.90
15386;DHT22;7791;47.246;9.648;2022-11-20T06:45:36;6.30;99.90
15386;DHT22;7791;47.246;9.648;2022-11-20T06:48:07;6.20;99.90
15386;DHT22;7791;47.246;9.648;2022-11-20T06:50:36;6.20;99.90
15386;DHT22;7791;47.246;9.648;2022-11-20T06:53:08;6.20;99.90
15386;DHT22;7791;47.246;9.648;2022-11-20T06:55:34;6.20;99.90
15386;DHT22;7791;47.246;9.648;2022-11-20T06:58:05;6.10;99.90
15386;DHT22;7791;47.246;9.648;2022-11-20T07:00:33;6.10;99.90
15386;DHT22;7791;47.246;9.648;2022-11-20T07:03:05;6.10;99.90
15386;DHT22;7791;47.246;9.648;2022-11-20T07:05:32;6.10;99.90
15386;DHT22;7791;47.246;9.648;2022-11-20T07:08:05;6.10;99.90
15386;DHT22;7791;47.246;9.648;2022-11-20T07:10:33;6.20;99.90
15386;DHT22;7791;47.246;9.648;2022-11-20T07:13:02;6.20;99.90
15386;DHT22;7791;47.246;9.648;2022-11-20T07:15:41;6.20;99.90
15386;DHT22;7791;47.246;9.648;2022-11-20T07:18:08;6.40;99.90
15386;DHT22;7791;47.246;9.648;2022-11-20T07:20:37;6.40;99.90
15386;DHT22;7791;47.246;9.648;2022-11-20T07:23:05;6.50;99.90
15386;DHT22;7791;47.246;9.648;2022-11-20T07:25:32;6.40;99.90
15386;DHT22;7791;47.246;9.648;2022-11-20T07:28:01;6.50;99.90
15386;DHT22;7791;47.246;9.648;2022-11-20T07:30:29;6.50;99.90
15386;DHT22;7791;47.246;9.648;2022-11-20T07:32:57;6.50;99.90
15386;DHT22;7791;47.246;9.648;2022-11-20T07:35:24;6.60;99.90
15386;DHT22;7791;47.246;9.648;2022-11-20T07:37:51;6.50;99.90
15386;DHT22;7791;47.246;9.648;2022-11-20T07:40:20;6.60;99.90
15386;DHT22;7791;47.246;9.648;2022-11-20T07:42:52;6.60;99.90
15386;DHT22;7791;47.246;9.648;2022-11-20T07:45:18;6.60;99.90
15386;DHT22;7791;47.246;9.648;2022-11-20T07:47:45;6.70;99.90
15386;DHT22;7791;47.246;9.648;2022-11-20T07:50:12;6.70;99.90
15386;DHT22;7791;47.246;9.648;2022-11-20T07:52:40;6.80;99.90
15386;DHT22;7791;47.246;9.648;2022-11-20T07:55:09;6.90;99.90
15386;DHT22;7791;47.246;9.648;2022-11-20T07:57:37;6.90;99.90
15386;DHT22;7791;47.246;9.648;2022-11-20T08:00:07;6.90;99.90
15386;DHT22;7791;47.246;9.648;2022-11-20T08:02:47;6.90;99.90
15386;DHT22;7791;47.246;9.648;2022-11-20T08:05:15;6.80;99.90
15386;DHT22;7791;47.246;9.648;2022-11-20T08:07:42;6.70;99.90
15386;DHT22;7791;47.246;9.648;2022-11-20T08:10:11;6.70;99.90
15386;DHT22;7791;47.246;9.648;2022-11-20T08:12:46;7.20;99.90
15386;DHT22;7791;47.246;9.648;2022-11-20T08:15:14;8.00;99.90
15386;DHT22;7791;47.246;9.648;2022-11-20T08:17:42;8.20;99.90
15386;DHT22;7791;47.246;9.648;2022-11-20T08:20:09;8.10;99.90
15386;DHT22;7791;47.246;9.648;2022-11-20T08:22:35;8.00;99.90
15386;DHT22;7791;47.246;9.648;2022-11-20T08:25:04;7.90;99.90
15386;DHT22;7791;47.246;9.648;2022-11-20T08:27:32;8.00;99.90
15386;DHT22;7791;47.246;9.648;2022-11-20T08:29:59;8.00;99.90
15386;DHT22;7791;47.246;9.648;2022-11-20T08:32:26;7.90;99.90
15386;DHT22;7791;47.246;9.648;2022-11-20T08:34:54;8.40;99.90
15386;DHT22;7791;47.246;9.648;2022-11-20T08:37:20;9.10;99.90
15386;DHT22;7791;47.246;9.648;2022-11-20T08:39:47;10.50;99.90
15386;DHT22;7791;47.246;9.648;2022-11-20T08:42:13;11.70;99.90
15386;DHT22;7791;47.246;9.648;2022-11-20T08:44:39;12.60;99.90
15386;DHT22;7791;47.246;9.648;2022-11-20T08:47:08;13.00;99.90
15386;DHT22;7791;47.246;9.648;2022-11-20T08:49:37;12.80;99.90
15386;DHT22;7791;47.246;9.648;2022-11-20T08:52:06;12.30;99.90
15386;DHT22;7791;47.246;9.648;2022-11-20T08:54:32;11.50;99.90
15386;DHT22;7791;47.246;9.648;2022-11-20T08:56:58;11.00;99.90
15386;DHT22;7791;47.246;9.648;2022-11-20T08:59:24;10.90;99.90
15386;DHT22;7791;47.246;9.648;2022-11-20T09:05:22;10.50;99.90
15386;DHT22;7791;47.246;9.648;2022-11-20T09:07:48;10.20;99.90
15386;DHT22;7791;47.246;9.648;2022-11-20T09:10:14;10.00;99.90
15386;DHT22;7791;47.246;9.648;2022-11-20T09:12:39;10.10;99.90
15386;DHT22;7791;47.246;9.648;2022-11-20T09:15:06;10.20;99.90
15386;DHT22;7791;47.246;9.648;2022-11-20T09:17:32;10.20;99.90
15386;DHT22;7791;47.246;9.648;2022-11-20T09:19:59;10.20;99.90
15386;DHT22;7791;47.246;9.648;2022-11-20T09:22:26;10.10;99.90
15386;DHT22;7791;47.246;9.648;2022-11-20T09:24:51;9.90;99.90
15386;DHT22;7791;47.246;9.648;2022-11-20T09:27:17;9.70;99.90
15386;DHT22;7791;47.246;9.648;2022-11-20T09:29:42;9.50;99.90
15386;DHT22;7791;47.246;9.648;2022-11-20T09:32:08;9.30;99.90
15386;DHT22;7791;47.246;9.648;2022-11-20T09:34:34;9.20;99.90
15386;DHT22;7791;47.246;9.648;2022-11-20T09:36:59;9.00;99.90
15386;DHT22;7791;47.246;9.648;2022-11-20T09:39:26;9.00;99.90
15386;DHT22;7791;47.246;9.648;2022-11-20T09:42:04;8.70;99.90
15386;DHT22;7791;47.246;9.648;2022-11-20T09:44:48;8.40;99.90
15386;DHT22;7791;47.246;9.648;2022-11-20T09:47:23;8.50;99.90
15386;DHT22;7791;47.246;9.648;2022-11-20T09:50:01;8.60;99.90
15386;DHT22;7791;47.246;9.648;2022-11-20T09:52:35;8.90;99.90
15386;DHT22;7791;47.246;9.648;2022-11-20T09:55:09;9.30;99.90
15386;DHT22;7791;47.246;9.648;2022-11-20T09:57:38;10.70;99.90
15386;DHT22;7791;47.246;9.648;2022-11-20T10:00:09;12.30;99.90
15386;DHT22;7791;47.246;9.648;2022-11-20T10:02:41;13.70;99.90
15386;DHT22;7791;47.246;9.648;2022-11-20T10:05:11;15.00;99.90
15386;DHT22;7791;47.246;9.648;2022-11-20T10:07:42;15.80;99.90
15386;DHT22;7791;47.246;9.648;2022-11-20T10:10:15;16.10;99.90
15386;DHT22;7791;47.246;9.648;2022-11-20T10:12:53;16.10;99.90
15386;DHT22;7791;47.246;9.648;2022-11-20T10:15:30;15.90;99.90
15386;DHT22;7791;47.246;9.648;2022-11-20T10:18:15;15.50;99.90
15386;DHT22;7791;47.246;9.648;2022-11-20T10:20:48;15.30;99.90
15386;DHT22;7791;47.246;9.648;2022-11-20T10:23:35;15.70;99.90
15386;DHT22;7791;47.246;9.648;2022-11-20T10:26:17;16.50;99.90
15386;DHT22;7791;47.246;9.648;2022-11-20T10:28:48;16.80;99.20
15386;DHT22;7791;47.246;9.648;2022-11-20T10:31:28;16.60;99.90
15386;DHT22;7791;47.246;9.648;2022-11-20T10:33:57;16.00;99.80
15386;DHT22;7791;47.246;9.648;2022-11-20T10:36:27;16.10;99.90
15386;DHT22;7791;47.246;9.648;2022-11-20T10:38:56;15.70;99.20
15386;DHT22;7791;47.246;9.648;2022-11-20T10:41:27;15.00;99.90
15386;DHT22;7791;47.246;9.648;2022-11-20T10:44:01;13.30;99.90
15386;DHT22;7791;47.246;9.648;2022-11-20T10:46:34;11.50;99.90
15386;DHT22;7791;47.246;9.648;2022-11-20T10:49:06;10.30;99.90
15386;DHT22;7791;47.246;9.648;2022-11-20T10:51:38;10.20;99.90
15386;DHT22;7791;47.246;9.648;2022-11-20T10:54:12;10.50;99.90
15386;DHT22;7791;47.246;9.648;2022-11-20T10:56:46;10.40;99.90
15386;DHT22;7791;47.246;9.648;2022-11-20T10:59:28;10.40;99.90
15386;DHT22;7791;47.246;9.648;2022-11-20T11:01:58;10.40;99.90
15386;DHT22;7791;47.246;9.648;2022-11-20T11:04:33;10.60;99.90
15386;DHT22;7791;47.246;9.648;2022-11-20T11:07:08;10.80;99.90
15386;DHT22;7791;47.246;9.648;2022-11-20T11:09:39;11.30;99.90
15386;DHT22;7791;47.246;9.648;2022-11-20T11:12:09;11.40;99.90
15386;DHT22;7791;47.246;9.648;2022-11-20T11:14:42;11.90;99.90
15386;DHT22;7791;47.246;9.648;2022-11-20T11:17:25;12.20;99.90
15386;DHT22;7791;47.246;9.648;2022-11-20T11:19:59;12.40;99.90
15386;DHT22;7791;47.246;9.648;2022-11-20T11:22:25;12.50;99.90
15386;DHT22;7791;47.246;9.648;2022-11-20T11:24:53;12.40;99.90
15386;DHT22;7791;47.246;9.648;2022-11-20T11:27:21;12.40;99.90
15386;DHT22;7791;47.246;9.648;2022-11-20T11:29:46;12.40;99.90
15386;DHT22;7791;47.246;9.648;2022-11-20T11:32:14;12.30;99.90
15386;DHT22;7791;47.246;9.648;2022-11-20T11:34:40;12.10;99.90
15386;DHT22;7791;47.246;9.648;2022-11-20T11:37:14;12.30;99.90
15386;DHT22;7791;47.246;9.648;2022-11-20T11:39:42;12.50;99.90
15386;DHT22;7791;47.246;9.648;2022-11-20T11:42:13;12.90;99.90
15386;DHT22;7791;47.246;9.648;2022-11-20T11:44:46;13.50;99.90
15386;DHT22;7791;47.246;9.648;2022-11-20T11:47:21;14.00;99.90
15386;DHT22;7791;47.246;9.648;2022-11-20T11:49:47;13.90;99.90
15386;DHT22;7791;47.246;9.648;2022-11-20T11:52:16;13.90;99.90
15386;DHT22;7791;47.246;9.648;2022-11-20T11:54:47;14.50;99.90
15386;DHT22;7791;47.246;9.648;2022-11-20T11:57:20;15.40;99.30
15386;DHT22;7791;47.246;9.648;2022-11-20T12:00:00;15.60;98.20
15386;DHT22;7791;47.246;9.648;2022-11-20T12:02:34;17.30;96.70
15386;DHT22;7791;47.246;9.648;2022-11-20T12:05:09;18.50;96.20
15386;DHT22;7791;47.246;9.648;2022-11-20T12:07:41;19.10;93.70
15386;DHT22;7791;47.246;9.648;2022-11-20T12:10:21;19.40;94.30
15386;DHT22;7791;47.246;9.648;2022-11-20T12:12:51;19.60;92.30
15386;DHT22;7791;47.246;9.648;2022-11-20T12:15:26;19.70;92.30
15386;DHT22;7791;47.246;9.648;2022-11-20T12:17:54;18.90;90.50
15386;DHT22;7791;47.246;9.648;2022-11-20T12:20:22;16.40;90.00
15386;DHT22;7791;47.246;9.648;2022-11-20T12:22:54;16.20;94.00
15386;DHT22;7791;47.246;9.648;2022-11-20T12:25:24;16.80;92.20
15386;DHT22;7791;47.246;9.648;2022-11-20T12:28:05;17.40;91.40
15386;DHT22;7791;47.246;9.648;2022-11-20T12:30:41;18.20;91.50
15386;DHT22;7791;47.246;9.648;2022-11-20T12:33:24;18.70;90.80
15386;DHT22;7791;47.246;9.648;2022-11-20T12:36:06;18.20;91.60
15386;DHT22;7791;47.246;9.648;2022-11-20T12:38:45;18.10;91.70
15386;DHT22;7791;47.246;9.648;2022-11-20T12:41:21;18.20;91.10
15386;DHT22;7791;47.246;9.648;2022-11-20T12:44:01;18.00;92.30
15386;DHT22;7791;47.246;9.648;2022-11-20T12:46:35;18.10;90.70
15386;DHT22;7791;47.246;9.648;2022-11-20T12:49:17;17.70;90.10
15386;DHT22;7791;47.246;9.648;2022-11-20T12:52:17;17.40;90.40
15386;DHT22;7791;47.246;9.648;2022-11-20T12:55:08;17.60;92.50
15386;DHT22;7791;47.246;9.648;2022-11-20T12:57:41;17.30;92.30
15386;DHT22;7791;47.246;9.648;2022-11-20T13:00:12;16.60;92.40
15386;DHT22;7791;47.246;9.648;2022-11-20T13:02:56;15.70;93.10
15386;DHT22;7791;47.246;9.648;2022-11-20T13:05:31;15.30;94.40
15386;DHT22;7791;47.246;9.648;2022-11-20T13:08:00;15.70;94.10
15386;DHT22;7791;47.246;9.648;2022-11-20T13:10:33;15.50;94.40
15386;DHT22;7791;47.246;9.648;2022-11-20T13:13:04;15.60;95.00
15386;DHT22;7791;47.246;9.648;2022-11-20T13:15:42;15.60;95.10
15386;DHT22;7791;47.246;9.648;2022-11-20T13:18:15;15.70;94.50
15386;DHT22;7791;47.246;9.648;2022-11-20T13:20:42;15.50;93.50
15386;DHT22;7791;47.246;9.648;2022-11-20T13:23:08;14.40;93.40
15386;DHT22;7791;47.246;9.648;2022-11-20T13:25:35;13.40;94.70
15386;DHT22;7791;47.246;9.648;2022-11-20T13:28:04;12.60;97.10
15386;DHT22;7791;47.246;9.648;2022-11-20T13:30:36;12.80;98.30
15386;DHT22;7791;47.246;9.648;2022-11-20T13:33:25;13.10;98.00
15386;DHT22;7791;47.246;9.648;2022-11-20T13:35:56;13.50;97.40
15386;DHT22;7791;47.246;9.648;2022-11-20T13:38:22;13.70;97.60
15386;DHT22;7791;47.246;9.648;2022-11-20T13:40:51;13.60;97.90
15386;DHT22;7791;47.246;9.648;2022-11-20T13:43:23;13.00;97.70
15386;DHT22;7791;47.246;9.648;2022-11-20T13:45:57;12.90;97.90
15386;DHT22;7791;47.246;9.648;2022-11-20T13:48:28;12.80;98.30
15386;DHT22;7791;47.246;9.648;2022-11-20T13:51:09;12.70;97.90
15386;DHT22;7791;47.246;9.648;2022-11-20T13:56:47;13.40;96.70
15386;DHT22;7791;47.246;9.648;2022-11-20T13:59:28;13.50;96.00
15386;DHT22;7791;47.246;9.648;2022-11-20T14:02:00;13.90;95.90
15386;DHT22;7791;47.246;9.648;2022-11-20T14:04:30;14.20;95.50
15386;DHT22;7791;47.246;9.648;2022-11-20T14:06:58;14.30;94.90
15386;DHT22;7791;47.246;9.648;2022-11-20T14:09:28;14.40;95.70
15386;DHT22;7791;47.246;9.648;2022-11-20T14:11:54;14.20;95.90
15386;DHT22;7791;47.246;9.648;2022-11-20T14:14:21;14.10;95.20
15386;DHT22;7791;47.246;9.648;2022-11-20T14:16:48;14.10;95.40
15386;DHT22;7791;47.246;9.648;2022-11-20T14:19:25;13.90;96.10
15386;DHT22;7791;47.246;9.648;2022-11-20T14:21:54;13.80;96.40
15386;DHT22;7791;47.246;9.648;2022-11-20T14:24:21;13.60;97.00
15386;DHT22;7791;47.246;9.648;2022-11-20T14:26:48;13.40;98.20
15386;DHT22;7791;47.246;9.648;2022-11-20T14:29:17;13.20;98.20
15386;DHT22;7791;47.246;9.648;2022-11-20T14:31:44;13.10;98.20
15386;DHT22;7791;47.246;9.648;2022-11-20T14:34:15;13.00;98.60
15386;DHT22;7791;47.246;9.648;2022-11-20T14:36:43;12.90;99.90
15386;DHT22;7791;47.246;9.648;2022-11-20T14:39:11;12.70;99.90
15386;DHT22;7791;47.246;9.648;2022-11-20T14:41:37;12.60;99.90
15386;DHT22;7791;47.246;9.648;2022-11-20T14:44:04;12.40;99.90
15386;DHT22;7791;47.246;9.648;2022-11-20T14:46:31;12.20;99.90
15386;DHT22;7791;47.246;9.648;2022-11-20T14:49:01;12.10;99.90
15386;DHT22;7791;47.246;9.648;2022-11-20T14:51:31;11.90;99.90
15386;DHT22;7791;47.246;9.648;2022-11-20T14:54:08;11.60;99.90
15386;DHT22;7791;47.246;9.648;2022-11-20T14:56:35;11.30;99.90
15386;DHT22;7791;47.246;9.648;2022-11-20T14:59:01;10.90;99.90
15386;DHT22;7791;47.246;9.648;2022-11-20T15:01:27;10.60;99.90
15386;DHT22;7791;47.246;9.648;2022-11-20T15:04:00;10.20;99.90
15386;DHT22;7791;47.246;9.648;2022-11-20T15:06:26;9.80;99.90
15386;DHT22;7791;47.246;9.648;2022-11-20T15:08:53;9.40;99.90
15386;DHT22;7791;47.246;9.648;2022-11-20T15:11:19;8.80;99.90
15386;DHT22;7791;47.246;9.648;2022-11-20T15:13:47;8.40;99.90
15386;DHT22;7791;47.246;9.648;2022-11-20T15:16:17;8.00;99.90
15386;DHT22;7791;47.246;9.648;2022-11-20T15:18:43;7.50;99.90
15386;DHT22;7791;47.246;9.648;2022-11-20T15:21:11;7.10;99.90
15386;DHT22;7791;47.246;9.648;2022-11-20T15:23:36;6.80;99.90
15386;DHT22;7791;47.246;9.648;2022-11-20T15:26:04;6.50;99.90
15386;DHT22;7791;47.246;9.648;2022-11-20T15:28:32;6.20;99.90
15386;DHT22;7791;47.246;9.648;2022-11-20T15:31:00;6.00;99.90
15386;DHT22;7791;47.246;9.648;2022-11-20T15:33:26;5.70;99.90
15386;DHT22;7791;47.246;9.648;2022-11-20T15:35:52;5.60;99.90
15386;DHT22;7791;47.246;9.648;2022-11-20T15:38:17;5.40;99.90
15386;DHT22;7791;47.246;9.648;2022-11-20T15:40:43;5.30;99.90
15386;DHT22;7791;47.246;9.648;2022-11-20T15:43:09;5.10;99.90
15386;DHT22;7791;47.246;9.648;2022-11-20T15:45:38;4.90;99.90
15386;DHT22;7791;47.246;9.648;2022-11-20T15:48:09;4.70;99.90
15386;DHT22;7791;47.246;9.648;2022-11-20T15:50:38;4.60;99.90
15386;DHT22;7791;47.246;9.648;2022-11-20T15:53:04;4.40;99.90
15386;DHT22;7791;47.246;9.648;2022-11-20T15:55:30;4.30;99.90
15386;DHT22;7791;47.246;9.648;2022-11-20T15:57:56;4.20;99.90
15386;DHT22;7791;47.246;9.648;2022-11-20T16:00:22;4.10;99.90
15386;DHT22;7791;47.246;9.648;2022-11-20T16:02:47;4.00;99.90
15386;DHT22;7791;47.246;9.648;2022-11-20T16:05:15;3.90;99.90
15386;DHT22;7791;47.246;9.648;2022-11-20T16:07:40;3.70;99.90
15386;DHT22;7791;47.246;9.648;2022-11-20T16:10:07;3.60;99.90
15386;DHT22;7791;47.246;9.648;2022-11-20T16:12:32;3.60;99.90
15386;DHT22;7791;47.246;9.648;2022-11-20T16:14:58;3.70;99.90
15386;DHT22;7791;47.246;9.648;2022-11-20T16:17:24;3.70;99.90
15386;DHT22;7791;47.246;9.648;2022-11-20T16:19:49;3.70;99.90